sensor_id;sensor_type;location;lat;lon;timestamp;pressure;altitude;pressure_sealevel;temperature;humidity
30636;BME280;17400;52.392;9.750;2023-06-22T00:00:12;101277.56;;;24.16;81.98
30636;BME280;17400;52.392;9.750;2023-06-22T00:02:40;101278.34;;;24.01;83.49
30636;BME280;17400;52.392;9.750;2023-06-22T00:05:09;101275.34;;;23.98;84.28
30636;BME280;17400;52.392;9.750;2023-06-22T00:07:37;101265.34;;;23.91;84.63
30636;BME280;17400;52.392;9.750;2023-06-22T00:10:06;101269.22;;;23.90;84.86
30636;BME280;17400;52.392;9.750;2023-06-22T00:12:34;101266.69;;;23.89;85.39
30636;BME280;17400;52.392;9.750;2023-06-22T00:15:02;101266.97;;;23.87;85.48
30636;BME280;17400;52.392;9.750;2023-06-22T00:17:30;101277.22;;;23.87;85.52
30636;BME280;17400;52.392;9.750;2023-06-22T00:19:57;101287.41;;;23.81;86.05
30636;BME280;17400;52.392;9.750;2023-06-22T00:22:28;101286.00;;;23.73;86.71
30636;BME280;17400;52.392;9.750;2023-06-22T00:24:57;101286.53;;;23.65;88.61
30636;BME280;17400;52.392;9.750;2023-06-22T00:27:25;101293.16;;;23.64;87.57
30636;BME280;17400;52.392;9.750;2023-06-22T00:29:53;101298.13;;;23.57;87.53
30636;BME280;17400;52.392;9.750;2023-06-22T00:32:21;101296.44;;;23.51;87.91
30636;BME280;17400;52.392;9.750;2023-06-22T00:34:49;101298.94;;;23.47;87.25
30636;BME280;17400;52.392;9.750;2023-06-22T00:37:17;101302.47;;;23.42;87.86
30636;BME280;17400;52.392;9.750;2023-06-22T00:39:47;101297.78;;;23.38;87.60
30636;BME280;17400;52.392;9.750;2023-06-22T00:42:15;101299.13;;;23.30;87.76
30636;BME280;17400;52.392;9.750;2023-06-22T00:44:43;101292.47;;;23.26;88.29
30636;BME280;17400;52.392;9.750;2023-06-22T00:47:11;101291.25;;;23.11;88.97
30636;BME280;17400;52.392;9.750;2023-06-22T00:49:41;101284.00;;;23.00;90.15
30636;BME280;17400;52.392;9.750;2023-06-22T00:52:09;101266.38;;;23.06;90.13
30636;BME280;17400;52.392;9.750;2023-06-22T00:54:40;101271.34;;;23.09;89.24
30636;BME280;17400;52.392;9.750;2023-06-22T00:57:13;101263.63;;;23.06;89.06
30636;BME280;17400;52.392;9.750;2023-06-22T00:59:42;101256.09;;;22.96;89.58
30636;BME280;17400;52.392;9.750;2023-06-22T01:02:11;101260.22;;;22.89;90.15
30636;BME280;17400;52.392;9.750;2023-06-22T01:04:39;101257.44;;;22.89;90.13
30636;BME280;17400;52.392;9.750;2023-06-22T01:07:21;101255.78;;;22.88;90.15
30636;BME280;17400;52.392;9.750;2023-06-22T01:09:59;101255.16;;;22.80;90.55
30636;BME280;17400;52.392;9.750;2023-06-22T01:12:30;101252.91;;;22.72;91.14
30636;BME280;17400;52.392;9.750;2023-06-22T01:15:05;101245.91;;;22.59;92.26
30636;BME280;17400;52.392;9.750;2023-06-22T01:17:37;101250.00;;;22.52;93.18
30636;BME280;17400;52.392;9.750;2023-06-22T01:20:09;101250.22;;;22.45;93.99
30636;BME280;17400;52.392;9.750;2023-06-22T01:22:48;101245.47;;;22.35;95.27
30636;BME280;17400;52.392;9.750;2023-06-22T01:25:28;101234.44;;;22.35;94.43
30636;BME280;17400;52.392;9.750;2023-06-22T01:28:03;101233.91;;;22.38;94.53
30636;BME280;17400;52.392;9.750;2023-06-22T01:30:34;101222.78;;;22.33;94.90
30636;BME280;17400;52.392;9.750;2023-06-22T01:33:04;101215.00;;;22.25;95.62
30636;BME280;17400;52.392;9.750;2023-06-22T01:35:33;101222.97;;;22.21;95.62
30636;BME280;17400;52.392;9.750;2023-06-22T01:38:02;101223.81;;;22.22;96.47
30636;BME280;17400;52.392;9.750;2023-06-22T01:40:31;101236.75;;;22.21;97.43
30636;BME280;17400;52.392;9.750;2023-06-22T01:43:00;101238.22;;;22.29;96.19
30636;BME280;17400;52.392;9.750;2023-06-22T01:45:30;101234.94;;;22.32;95.66
30636;BME280;17400;52.392;9.750;2023-06-22T01:48:00;101238.03;;;22.36;95.29
30636;BME280;17400;52.392;9.750;2023-06-22T01:50:28;101230.59;;;22.36;95.34
30636;BME280;17400;52.392;9.750;2023-06-22T01:52:56;101231.69;;;22.35;94.99
30636;BME280;17400;52.392;9.750;2023-06-22T01:55:28;101233.91;;;22.38;94.70
30636;BME280;17400;52.392;9.750;2023-06-22T01:57:56;101224.81;;;22.38;96.50
30636;BME280;17400;52.392;9.750;2023-06-22T02:00:25;101226.75;;;22.37;96.72
30636;BME280;17400;52.392;9.750;2023-06-22T02:03:01;101233.28;;;22.31;95.81
30636;BME280;17400;52.392;9.750;2023-06-22T02:05:33;101223.81;;;22.22;96.90
30636;BME280;17400;52.392;9.750;2023-06-22T02:08:07;101228.25;;;22.23;96.79
30636;BME280;17400;52.392;9.750;2023-06-22T02:10:37;101235.28;;;22.08;98.29
30636;BME280;17400;52.392;9.750;2023-06-22T02:13:09;101240.19;;;22.01;99.05
30636;BME280;17400;52.392;9.750;2023-06-22T02:15:38;101242.44;;;22.04;99.04
30636;BME280;17400;52.392;9.750;2023-06-22T02:18:07;101244.06;;;22.05;98.98
30636;BME280;17400;52.392;9.750;2023-06-22T02:20:36;101242.16;;;22.06;99.54
30636;BME280;17400;52.392;9.750;2023-06-22T02:23:05;101241.69;;;22.14;97.36
30636;BME280;17400;52.392;9.750;2023-06-22T02:25:34;101242.53;;;22.20;98.38
30636;BME280;17400;52.392;9.750;2023-06-22T02:28:02;101243.69;;;22.24;97.66
30636;BME280;17400;52.392;9.750;2023-06-22T02:30:30;101243.72;;;22.29;97.61
30636;BME280;17400;52.392;9.750;2023-06-22T02:32:58;101243.22;;;22.32;96.64
30636;BME280;17400;52.392;9.750;2023-06-22T02:35:28;101242.09;;;22.33;95.90
30636;BME280;17400;52.392;9.750;2023-06-22T02:37:58;101237.38;;;22.28;96.51
30636;BME280;17400;52.392;9.750;2023-06-22T02:40:26;101253.63;;;22.25;96.47
30636;BME280;17400;52.392;9.750;2023-06-22T02:42:55;101253.63;;;22.25;96.88
30636;BME280;17400;52.392;9.750;2023-06-22T02:45:24;101260.81;;;22.26;96.95
30636;BME280;17400;52.392;9.750;2023-06-22T02:47:52;101261.91;;;22.25;96.75
30636;BME280;17400;52.392;9.750;2023-06-22T02:50:20;101266.81;;;22.18;98.55
30636;BME280;17400;52.392;9.750;2023-06-22T02:52:49;101270.56;;;22.06;99.19
30636;BME280;17400;52.392;9.750;2023-06-22T02:55:17;101275.03;;;21.85;100.00
30636;BME280;17400;52.392;9.750;2023-06-22T02:57:45;101284.63;;;21.83;100.00
30636;BME280;17400;52.392;9.750;2023-06-22T03:00:14;101281.75;;;21.72;100.00
30636;BME280;17400;52.392;9.750;2023-06-22T03:02:45;101293.09;;;21.76;100.00
30636;BME280;17400;52.392;9.750;2023-06-22T03:05:14;101285.22;;;21.85;100.00
30636;BME280;17400;52.392;9.750;2023-06-22T03:07:45;101287.34;;;21.77;100.00
30636;BME280;17400;52.392;9.750;2023-06-22T03:10:15;101291.44;;;21.75;100.00
30636;BME280;17400;52.392;9.750;2023-06-22T03:12:43;101282.94;;;21.76;100.00
30636;BME280;17400;52.392;9.750;2023-06-22T03:15:12;101290.34;;;21.76;100.00
30636;BME280;17400;52.392;9.750;2023-06-22T03:17:40;101292.78;;;21.72;100.00
30636;BME280;17400;52.392;9.750;2023-06-22T03:20:11;101287.28;;;21.72;100.00
30636;BME280;17400;52.392;9.750;2023-06-22T03:22:40;101291.16;;;21.71;100.00
30636;BME280;17400;52.392;9.750;2023-06-22T03:25:09;101280.19;;;21.76;100.00
30636;BME280;17400;52.392;9.750;2023-06-22T03:27:41;101287.88;;;21.74;100.00
30636;BME280;17400;52.392;9.750;2023-06-22T03:30:10;101291.16;;;21.71;100.00
30636;BME280;17400;52.392;9.750;2023-06-22T03:32:38;101288.66;;;21.70;100.00
30636;BME280;17400;52.392;9.750;2023-06-22T03:35:07;101288.06;;;21.68;100.00
30636;BME280;17400;52.392;9.750;2023-06-22T03:37:35;101289.72;;;21.69;100.00
30636;BME280;17400;52.392;9.750;2023-06-22T03:40:04;101289.47;;;21.70;100.00
30636;BME280;17400;52.392;9.750;2023-06-22T03:42:33;101288.13;;;21.73;100.00
30636;BME280;17400;52.392;9.750;2023-06-22T03:45:21;101275.75;;;21.75;100.00
30636;BME280;17400;52.392;9.750;2023-06-22T03:47:49;101276.31;;;21.77;100.00
30636;BME280;17400;52.392;9.750;2023-06-22T03:50:16;101287.28;;;21.72;100.00
30636;BME280;17400;52.392;9.750;2023-06-22T03:52:46;101277.38;;;21.71;100.00
30636;BME280;17400;52.392;9.750;2023-06-22T03:55:15;101272.94;;;21.70;100.00
30636;BME280;17400;52.392;9.750;2023-06-22T03:57:43;101267.97;;;21.67;100.00
30636;BME280;17400;52.392;9.750;2023-06-22T04:00:12;101276.34;;;21.55;100.00
30636;BME280;17400;52.392;9.750;2023-06-22T04:02:41;101275.88;;;21.41;100.00
30636;BME280;17400;52.392;9.750;2023-06-22T04:05:10;101278.16;;;21.50;100.00
30636;BME280;17400;52.392;9.750;2023-06-22T04:07:38;101273.97;;;21.64;100.00
30636;BME280;17400;52.392;9.750;2023-06-22T04:10:06;101281.28;;;21.75;100.00
30636;BME280;17400;52.392;9.750;2023-06-22T04:12:38;101278.03;;;21.84;100.00
30636;BME280;17400;52.392;9.750;2023-06-22T04:15:06;101287.13;;;21.84;100.00
30636;BME280;17400;52.392;9.750;2023-06-22T04:17:34;101286.03;;;21.85;100.00
30636;BME280;17400;52.392;9.750;2023-06-22T04:20:05;101287.50;;;21.93;100.00
30636;BME280;17400;52.392;9.750;2023-06-22T04:22:33;101280.97;;;21.99;100.00
30636;BME280;17400;52.392;9.750;2023-06-22T04:25:00;101283.78;;;22.04;100.00
30636;BME280;17400;52.392;9.750;2023-06-22T04:27:28;101280.53;;;22.12;100.00
30636;BME280;17400;52.392;9.750;2023-06-22T04:29:57;101280.31;;;22.19;100.00
30636;BME280;17400;52.392;9.750;2023-06-22T04:32:27;101278.66;;;22.18;100.00
30636;BME280;17400;52.392;9.750;2023-06-22T04:34:54;101277.31;;;22.21;99.90
30636;BME280;17400;52.392;9.750;2023-06-22T04:37:24;101272.94;;;22.25;99.83
30636;BME280;17400;52.392;9.750;2023-06-22T04:39:52;101273.69;;;22.15;99.72
30636;BME280;17400;52.392;9.750;2023-06-22T04:42:19;101283.34;;;22.18;99.73
30636;BME280;17400;52.392;9.750;2023-06-22T04:44:47;101282.22;;;22.13;99.90
30636;BME280;17400;52.392;9.750;2023-06-22T04:47:15;101285.84;;;22.19;99.01
30636;BME280;17400;52.392;9.750;2023-06-22T04:49:43;101280.00;;;22.16;99.33
30636;BME280;17400;52.392;9.750;2023-06-22T04:52:12;101282.16;;;22.08;100.00
30636;BME280;17400;52.392;9.750;2023-06-22T04:54:49;101287.41;;;22.10;100.00
30636;BME280;17400;52.392;9.750;2023-06-22T04:57:22;101280.75;;;22.06;100.00
30636;BME280;17400;52.392;9.750;2023-06-22T04:59:59;101281.09;;;22.14;100.00
30636;BME280;17400;52.392;9.750;2023-06-22T05:02:39;101287.19;;;22.17;100.00
30636;BME280;17400;52.392;9.750;2023-06-22T05:05:08;101286.16;;;22.23;99.73
30636;BME280;17400;52.392;9.750;2023-06-22T05:07:42;101276.81;;;22.29;98.54
30636;BME280;17400;52.392;9.750;2023-06-22T05:10:12;101274.66;;;22.31;98.88
30636;BME280;17400;52.392;9.750;2023-06-22T05:12:40;101276.41;;;22.37;98.52
30636;BME280;17400;52.392;9.750;2023-06-22T05:15:09;101266.50;;;22.41;98.40
30636;BME280;17400;52.392;9.750;2023-06-22T05:17:37;101263.72;;;22.41;98.08
30636;BME280;17400;52.392;9.750;2023-06-22T05:20:10;101264.25;;;22.38;98.72
30636;BME280;17400;52.392;9.750;2023-06-22T05:22:39;101260.16;;;22.46;97.71
30636;BME280;17400;52.392;9.750;2023-06-22T05:25:09;101257.19;;;22.53;97.96
30636;BME280;17400;52.392;9.750;2023-06-22T05:27:39;101252.78;;;22.57;97.49
30636;BME280;17400;52.392;9.750;2023-06-22T05:30:08;101253.09;;;22.60;97.24
30636;BME280;17400;52.392;9.750;2023-06-22T05:32:37;101259.72;;;22.59;97.59
30636;BME280;17400;52.392;9.750;2023-06-22T05:35:05;101255.59;;;22.62;96.98
30636;BME280;17400;52.392;9.750;2023-06-22T05:37:33;101261.13;;;22.62;98.06
30636;BME280;17400;52.392;9.750;2023-06-22T05:40:01;101260.00;;;22.58;97.53
30636;BME280;17400;52.392;9.750;2023-06-22T05:42:30;101251.16;;;22.61;97.34
30636;BME280;17400;52.392;9.750;2023-06-22T05:44:59;101258.94;;;22.64;97.36
30636;BME280;17400;52.392;9.750;2023-06-22T05:47:27;101257.81;;;22.60;98.55
30636;BME280;17400;52.392;9.750;2023-06-22T05:49:54;101261.06;;;22.57;98.73
30636;BME280;17400;52.392;9.750;2023-06-22T05:52:22;101262.25;;;22.66;97.78
30636;BME280;17400;52.392;9.750;2023-06-22T05:54:50;101254.00;;;22.71;97.77
30636;BME280;17400;52.392;9.750;2023-06-22T05:57:18;101253.53;;;22.79;96.91
30636;BME280;17400;52.392;9.750;2023-06-22T05:59:48;101258.25;;;22.84;96.94
30636;BME280;17400;52.392;9.750;2023-06-22T06:02:17;101249.69;;;22.86;96.26
30636;BME280;17400;52.392;9.750;2023-06-22T06:04:46;101251.00;;;22.78;96.96
30636;BME280;17400;52.392;9.750;2023-06-22T06:07:13;101252.84;;;22.62;98.45
30636;BME280;17400;52.392;9.750;2023-06-22T06:09:41;101251.28;;;22.76;98.10
30636;BME280;17400;52.392;9.750;2023-06-22T06:12:10;101249.59;;;22.70;97.93
30636;BME280;17400;52.392;9.750;2023-06-22T06:14:38;101248.03;;;22.90;97.24
30636;BME280;17400;52.392;9.750;2023-06-22T06:17:05;101248.59;;;22.87;97.60
30636;BME280;17400;52.392;9.750;2023-06-22T06:19:35;101258.84;;;22.96;95.59
30636;BME280;17400;52.392;9.750;2023-06-22T06:22:03;101259.22;;;23.10;95.29
30636;BME280;17400;52.392;9.750;2023-06-22T06:24:31;101254.31;;;23.23;94.14
30636;BME280;17400;52.392;9.750;2023-06-22T06:26:59;101248.25;;;23.21;93.61
30636;BME280;17400;52.392;9.750;2023-06-22T06:29:31;101241.91;;;23.25;92.13
30636;BME280;17400;52.392;9.750;2023-06-22T06:31:59;101240.00;;;23.31;91.92
30636;BME280;17400;52.392;9.750;2023-06-22T06:34:27;101240.84;;;23.32;91.39
30636;BME280;17400;52.392;9.750;2023-06-22T06:36:56;101235.59;;;23.30;91.35
30636;BME280;17400;52.392;9.750;2023-06-22T06:39:27;101226.19;;;23.26;91.27
30636;BME280;17400;52.392;9.750;2023-06-22T06:41:54;101231.47;;;23.38;91.17
30636;BME280;17400;52.392;9.750;2023-06-22T06:44:22;101233.16;;;23.49;91.57
30636;BME280;17400;52.392;9.750;2023-06-22T06:46:50;101225.69;;;23.55;91.30
30636;BME280;17400;52.392;9.750;2023-06-22T06:49:18;101218.53;;;23.54;89.97
30636;BME280;17400;52.392;9.750;2023-06-22T06:51:46;101219.38;;;23.59;89.59
30636;BME280;17400;52.392;9.750;2023-06-22T06:54:15;101222.16;;;23.65;88.20
30636;BME280;17400;52.392;9.750;2023-06-22T06:56:43;101218.03;;;23.72;88.76
30636;BME280;17400;52.392;9.750;2023-06-22T06:59:15;101224.38;;;23.78;88.88
30636;BME280;17400;52.392;9.750;2023-06-22T07:01:43;101219.41;;;23.85;88.35
30636;BME280;17400;52.392;9.750;2023-06-22T07:04:11;101226.94;;;23.95;87.43
30636;BME280;17400;52.392;9.750;2023-06-22T07:06:39;101225.78;;;23.86;84.33
30636;BME280;17400;52.392;9.750;2023-06-22T07:09:07;101224.09;;;23.79;85.78
30636;BME280;17400;52.392;9.750;2023-06-22T07:11:36;101227.72;;;23.80;84.33
30636;BME280;17400;52.392;9.750;2023-06-22T07:14:04;101235.75;;;23.82;86.66
30636;BME280;17400;52.392;9.750;2023-06-22T07:16:32;101228.59;;;23.96;85.43
30636;BME280;17400;52.392;9.750;2023-06-22T07:19:00;101229.72;;;24.00;86.51
30636;BME280;17400;52.392;9.750;2023-06-22T07:21:28;101231.91;;;24.03;86.52
30636;BME280;17400;52.392;9.750;2023-06-22T07:23:56;101225.00;;;24.06;86.15
30636;BME280;17400;52.392;9.750;2023-06-22T07:26:24;101236.06;;;24.06;86.17
30636;BME280;17400;52.392;9.750;2023-06-22T07:28:54;101230.25;;;24.18;86.23
30636;BME280;17400;52.392;9.750;2023-06-22T07:31:23;101233.03;;;24.23;86.10
30636;BME280;17400;52.392;9.750;2023-06-22T07:33:51;101229.44;;;24.17;85.93
30636;BME280;17400;52.392;9.750;2023-06-22T07:36:19;101217.53;;;24.17;86.57
30636;BME280;17400;52.392;9.750;2023-06-22T07:38:47;101204.53;;;24.22;84.97
30636;BME280;17400;52.392;9.750;2023-06-22T07:41:15;101204.25;;;24.34;84.97
30636;BME280;17400;52.392;9.750;2023-06-22T07:43:43;101204.53;;;24.33;82.71
30636;BME280;17400;52.392;9.750;2023-06-22T07:46:12;101205.38;;;24.38;82.64
30636;BME280;17400;52.392;9.750;2023-06-22T07:48:40;101207.00;;;24.50;80.89
30636;BME280;17400;52.392;9.750;2023-06-22T07:51:08;101216.97;;;24.51;80.29
30636;BME280;17400;52.392;9.750;2023-06-22T07:53:39;101209.22;;;24.48;80.86
30636;BME280;17400;52.392;9.750;2023-06-22T07:56:10;101198.16;;;24.32;80.81
30636;BME280;17400;52.392;9.750;2023-06-22T07:58:38;101213.66;;;24.28;80.34
30636;BME280;17400;52.392;9.750;2023-06-22T08:01:06;101203.72;;;24.27;81.58
30636;BME280;17400;52.392;9.750;2023-06-22T08:03:37;101204.28;;;24.24;81.54
30636;BME280;17400;52.392;9.750;2023-06-22T08:06:07;101197.59;;;24.25;82.07
30636;BME280;17400;52.392;9.750;2023-06-22T08:08:35;101197.88;;;24.28;81.80
30636;BME280;17400;52.392;9.750;2023-06-22T08:11:03;101198.47;;;24.25;81.92
30636;BME280;17400;52.392;9.750;2023-06-22T08:13:32;101197.06;;;24.28;82.56
30636;BME280;17400;52.392;9.750;2023-06-22T08:16:00;101196.50;;;24.21;82.90
30636;BME280;17400;52.392;9.750;2023-06-22T08:18:28;101202.31;;;24.19;82.94
30636;BME280;17400;52.392;9.750;2023-06-22T08:20:57;101213.09;;;24.21;83.53
30636;BME280;17400;52.392;9.750;2023-06-22T08:23:25;101221.69;;;24.09;82.65
30636;BME280;17400;52.392;9.750;2023-06-22T08:25:55;101220.31;;;24.17;84.13
30636;BME280;17400;52.392;9.750;2023-06-22T08:28:23;101223.06;;;24.11;83.85
30636;BME280;17400;52.392;9.750;2023-06-22T08:30:51;101223.63;;;24.14;84.07
30636;BME280;17400;52.392;9.750;2023-06-22T08:33:19;101221.97;;;24.18;84.40
30636;BME280;17400;52.392;9.750;2023-06-22T08:35:54;101218.91;;;24.24;85.09
30636;BME280;17400;52.392;9.750;2023-06-22T08:38:23;101221.41;;;24.31;84.95
30636;BME280;17400;52.392;9.750;2023-06-22T08:40:51;101227.50;;;24.23;84.82
30636;BME280;17400;52.392;9.750;2023-06-22T08:43:19;101228.31;;;24.28;85.22
30636;BME280;17400;52.392;9.750;2023-06-22T08:45:47;101225.28;;;24.40;84.43
30636;BME280;17400;52.392;9.750;2023-06-22T08:48:15;101217.78;;;24.46;83.12
30636;BME280;17400;52.392;9.750;2023-06-22T08:50:43;101222.78;;;24.44;84.30
30636;BME280;17400;52.392;9.750;2023-06-22T08:53:11;101208.38;;;24.47;84.30
30636;BME280;17400;52.392;9.750;2023-06-22T08:55:40;101206.47;;;24.48;84.91
30636;BME280;17400;52.392;9.750;2023-06-22T08:58:08;101208.09;;;24.54;84.65
30636;BME280;17400;52.392;9.750;2023-06-22T09:00:36;101204.78;;;24.57;85.46
30636;BME280;17400;52.392;9.750;2023-06-22T09:03:04;101208.09;;;24.49;84.18
30636;BME280;17400;52.392;9.750;2023-06-22T09:05:32;101208.09;;;24.49;84.34
30636;BME280;17400;52.392;9.750;2023-06-22T09:08:00;101205.88;;;24.61;84.89
30636;BME280;17400;52.392;9.750;2023-06-22T09:10:28;101210.31;;;24.67;84.86
30636;BME280;17400;52.392;9.750;2023-06-22T09:12:58;101204.22;;;24.70;84.10
30636;BME280;17400;52.392;9.750;2023-06-22T09:15:25;101199.50;;;24.81;83.92
30636;BME280;17400;52.392;9.750;2023-06-22T09:17:53;101188.38;;;24.91;83.70
30636;BME280;17400;52.392;9.750;2023-06-22T09:20:24;101188.63;;;25.00;82.74
30636;BME280;17400;52.392;9.750;2023-06-22T09:22:54;101182.78;;;25.02;82.56
30636;BME280;17400;52.392;9.750;2023-06-22T09:25:21;101169.47;;;25.09;83.46
30636;BME280;17400;52.392;9.750;2023-06-22T09:27:49;101169.44;;;25.14;82.77
30636;BME280;17400;52.392;9.750;2023-06-22T09:30:19;101173.56;;;25.22;82.90
30636;BME280;17400;52.392;9.750;2023-06-22T09:32:47;101165.28;;;25.17;83.03
30636;BME280;17400;52.392;9.750;2023-06-22T09:35:15;101171.38;;;25.14;83.24
30636;BME280;17400;52.392;9.750;2023-06-22T09:37:42;101157.84;;;25.07;83.81
30636;BME280;17400;52.392;9.750;2023-06-22T09:40:12;101161.47;;;25.07;84.63
30636;BME280;17400;52.392;9.750;2023-06-22T09:42:42;101151.16;;;25.13;84.48
30636;BME280;17400;52.392;9.750;2023-06-22T09:45:10;101156.44;;;25.09;84.55
30636;BME280;17400;52.392;9.750;2023-06-22T09:47:39;101152.84;;;25.14;85.20
30636;BME280;17400;52.392;9.750;2023-06-22T09:50:08;101156.41;;;25.15;84.92
30636;BME280;17400;52.392;9.750;2023-06-22T09:52:36;101160.59;;;25.12;86.75
30636;BME280;17400;52.392;9.750;2023-06-22T09:55:08;101165.81;;;25.19;86.26
30636;BME280;17400;52.392;9.750;2023-06-22T09:57:36;101167.78;;;25.18;86.47
30636;BME280;17400;52.392;9.750;2023-06-22T10:00:04;101167.72;;;25.28;87.05
30636;BME280;17400;52.392;9.750;2023-06-22T10:02:35;101164.66;;;25.30;86.00
30636;BME280;17400;52.392;9.750;2023-06-22T10:05:05;101161.09;;;25.24;86.81
30636;BME280;17400;52.392;9.750;2023-06-22T10:07:34;101158.03;;;25.26;86.88
30636;BME280;17400;52.392;9.750;2023-06-22T10:10:07;101151.38;;;25.27;86.62
30636;BME280;17400;52.392;9.750;2023-06-22T10:12:35;101148.06;;;25.25;86.92
30636;BME280;17400;52.392;9.750;2023-06-22T10:15:04;101140.53;;;25.31;87.10
30636;BME280;17400;52.392;9.750;2023-06-22T10:17:32;101148.63;;;25.27;87.24
30636;BME280;17400;52.392;9.750;2023-06-22T10:20:00;101143.88;;;25.33;88.18
30636;BME280;17400;52.392;9.750;2023-06-22T10:22:34;101141.91;;;25.33;87.57
30636;BME280;17400;52.392;9.750;2023-06-22T10:25:02;101141.38;;;25.36;87.57
30636;BME280;17400;52.392;9.750;2023-06-22T10:27:33;101135.84;;;25.31;87.64
30636;BME280;17400;52.392;9.750;2023-06-22T10:30:02;101133.91;;;25.26;87.28
30636;BME280;17400;52.392;9.750;2023-06-22T10:32:31;101119.75;;;25.33;87.39
30636;BME280;17400;52.392;9.750;2023-06-22T10:34:59;101127.78;;;25.35;88.06
30636;BME280;17400;52.392;9.750;2023-06-22T10:37:27;101124.19;;;25.39;88.09
30636;BME280;17400;52.392;9.750;2023-06-22T10:39:57;101122.00;;;25.36;87.33
30636;BME280;17400;52.392;9.750;2023-06-22T10:42:25;101124.22;;;25.34;87.66
30636;BME280;17400;52.392;9.750;2023-06-22T10:44:53;101123.63;;;25.37;87.93
30636;BME280;17400;52.392;9.750;2023-06-22T10:47:21;101116.94;;;25.43;87.86
30636;BME280;17400;52.392;9.750;2023-06-22T10:49:48;101115.78;;;25.50;88.37
30636;BME280;17400;52.392;9.750;2023-06-22T10:52:16;101108.19;;;25.66;88.12
30636;BME280;17400;52.392;9.750;2023-06-22T10:54:44;101109.53;;;25.73;88.56
30636;BME280;17400;52.392;9.750;2023-06-22T10:57:13;101107.84;;;25.72;87.95
30636;BME280;17400;52.392;9.750;2023-06-22T10:59:41;101105.03;;;25.77;87.90
30636;BME280;17400;52.392;9.750;2023-06-22T11:02:09;101108.38;;;25.74;88.29
30636;BME280;17400;52.392;9.750;2023-06-22T11:04:38;101106.69;;;25.78;88.11
30636;BME280;17400;52.392;9.750;2023-06-22T11:07:06;101087.22;;;25.84;87.64
30636;BME280;17400;52.392;9.750;2023-06-22T11:09:35;101096.72;;;25.77;87.15
30636;BME280;17400;52.392;9.750;2023-06-22T11:12:07;101091.13;;;25.83;86.03
30636;BME280;17400;52.392;9.750;2023-06-22T11:14:38;101089.44;;;25.87;85.71
30636;BME280;17400;52.392;9.750;2023-06-22T11:17:06;101086.41;;;25.83;86.19
30636;BME280;17400;52.392;9.750;2023-06-22T11:19:34;101087.19;;;25.89;86.59
30636;BME280;17400;52.392;9.750;2023-06-22T11:22:03;101087.19;;;25.89;85.98
30636;BME280;17400;52.392;9.750;2023-06-22T11:24:31;101088.19;;;25.98;86.15
30636;BME280;17400;52.392;9.750;2023-06-22T11:26:59;101090.97;;;25.98;86.00
30636;BME280;17400;52.392;9.750;2023-06-22T11:29:27;101082.66;;;25.98;84.95
30636;BME280;17400;52.392;9.750;2023-06-22T11:32:06;101075.97;;;26.04;85.23
30636;BME280;17400;52.392;9.750;2023-06-22T11:34:38;101072.34;;;26.09;85.58
30636;BME280;17400;52.392;9.750;2023-06-22T11:37:06;101082.59;;;26.08;85.36
30636;BME280;17400;52.392;9.750;2023-06-22T11:39:34;101081.78;;;26.08;84.98
30636;BME280;17400;52.392;9.750;2023-06-22T11:42:14;101070.13;;;26.06;85.20
30636;BME280;17400;52.392;9.750;2023-06-22T11:44:42;101067.56;;;26.15;84.17
30636;BME280;17400;52.392;9.750;2023-06-22T11:47:11;101054.09;;;26.27;83.60
30636;BME280;17400;52.392;9.750;2023-06-22T11:49:39;101053.38;;;26.40;83.49
30636;BME280;17400;52.392;9.750;2023-06-22T11:52:08;101049.66;;;26.50;83.54
30636;BME280;17400;52.392;9.750;2023-06-22T11:54:36;101038.19;;;26.57;83.75
30636;BME280;17400;52.392;9.750;2023-06-22T11:57:04;101033.31;;;26.68;82.58
30636;BME280;17400;52.392;9.750;2023-06-22T11:59:32;101025.63;;;26.84;82.56
30636;BME280;17400;52.392;9.750;2023-06-22T12:02:00;101026.53;;;26.98;81.20
30636;BME280;17400;52.392;9.750;2023-06-22T12:04:30;101023.72;;;27.17;80.05
30636;BME280;17400;52.392;9.750;2023-06-22T12:06:59;101026.44;;;27.41;76.58
30636;BME280;17400;52.392;9.750;2023-06-22T12:09:27;101009.13;;;27.77;74.68
30636;BME280;17400;52.392;9.750;2023-06-22T12:11:55;101000.25;;;27.75;74.20
30636;BME280;17400;52.392;9.750;2023-06-22T12:14:24;101002.31;;;27.70;75.29
30636;BME280;17400;52.392;9.750;2023-06-22T12:16:52;100998.09;;;27.58;75.64
30636;BME280;17400;52.392;9.750;2023-06-22T12:19:20;100993.16;;;27.36;74.67
30636;BME280;17400;52.392;9.750;2023-06-22T12:21:50;100989.34;;;27.32;75.99
30636;BME280;17400;52.392;9.750;2023-06-22T12:24:18;100986.63;;;27.27;76.60
30636;BME280;17400;52.392;9.750;2023-06-22T12:26:45;100985.06;;;27.21;76.75
30636;BME280;17400;52.392;9.750;2023-06-22T12:29:14;100980.13;;;27.18;76.74
30636;BME280;17400;52.392;9.750;2023-06-22T12:31:42;100976.72;;;27.21;77.23
30636;BME280;17400;52.392;9.750;2023-06-22T12:34:10;100966.13;;;27.23;77.76
30636;BME280;17400;52.392;9.750;2023-06-22T12:36:38;100963.13;;;27.19;76.51
30636;BME280;17400;52.392;9.750;2023-06-22T12:39:09;100969.41;;;27.25;78.10
30636;BME280;17400;52.392;9.750;2023-06-22T12:41:37;100960.75;;;27.13;77.85
30636;BME280;17400;52.392;9.750;2023-06-22T12:44:06;100963.44;;;27.18;78.06
30636;BME280;17400;52.392;9.750;2023-06-22T12:46:33;100966.25;;;27.32;78.64
30636;BME280;17400;52.392;9.750;2023-06-22T12:49:04;100960.38;;;27.33;77.64
30636;BME280;17400;52.392;9.750;2023-06-22T12:51:39;100968.88;;;27.42;77.15
30636;BME280;17400;52.392;9.750;2023-06-22T12:54:10;100961.97;;;27.39;77.38
30636;BME280;17400;52.392;9.750;2023-06-22T12:56:39;100950.91;;;27.34;77.56